createdAt,value
2022-10-24T00:00:23.882Z,81.28
2022-10-24T00:02:50.358Z,81.25
2022-10-24T00:05:16.862Z,80.98
2022-10-24T00:07:43.536Z,80.28
2022-10-24T00:10:13.667Z,80.33
2022-10-24T00:17:33.687Z,79.57
2022-10-24T00:20:00.597Z,79.29
2022-10-24T00:22:27.222Z,79.24
2022-10-24T00:24:53.760Z,78.42
2022-10-24T00:29:46.421Z,78.86
2022-10-24T00:32:12.941Z,78.14
2022-10-24T00:34:39.306Z,77.69
2022-10-24T00:41:59.194Z,77.20
2022-10-24T00:44:34.362Z,77.05
2022-10-24T00:47:24.747Z,77.24
2022-10-24T00:50:00.569Z,76.50
2022-10-24T00:54:57.901Z,76.49
2022-10-24T01:02:21.776Z,75.92
2022-10-24T01:07:41.215Z,75.82
2022-10-24T01:18:00.732Z,75.18
2022-10-24T01:20:42.450Z,74.90
2022-10-24T01:23:23.563Z,75.21
2022-10-24T01:26:08.001Z,74.07
2022-10-24T01:28:54.339Z,74.47
2022-10-24T01:31:37.878Z,74.58
2022-10-24T01:34:09.890Z,74.40
2022-10-24T01:42:06.201Z,74.67
2022-10-24T01:44:39.393Z,74.94
2022-10-24T01:47:12.101Z,74.68
2022-10-24T01:49:41.024Z,74.16
2022-10-24T01:54:44.891Z,74.24
2022-10-24T01:57:13.334Z,74.35
2022-10-24T02:04:40.876Z,74.28
2022-10-24T02:07:10.179Z,74.15
2022-10-24T02:09:39.713Z,74.08
2022-10-24T02:12:10.514Z,74.18
2022-10-24T02:14:43.204Z,73.99
2022-10-24T02:19:37.846Z,74.02
2022-10-24T02:22:11.224Z,73.74
2022-10-24T02:27:24.345Z,72.74
2022-10-24T02:29:52.931Z,72.73
2022-10-24T02:32:27.281Z,72.92
2022-10-24T02:34:55.190Z,72.71
2022-10-24T02:37:23.486Z,72.87
2022-10-24T02:42:17.005Z,71.95
2022-10-24T02:44:47.000Z,71.84
2022-10-24T02:47:15.084Z,71.76
2022-10-24T02:49:41.861Z,71.55
2022-10-24T02:57:03.121Z,71.45
2022-10-24T02:59:29.586Z,71.64
2022-10-24T03:01:56.472Z,71.79
2022-10-24T03:04:23.178Z,71.24
2022-10-24T03:09:16.005Z,71.58
2022-10-24T03:11:42.471Z,71.84
2022-10-24T03:14:08.866Z,71.84
2022-10-24T03:19:01.502Z,72.46
2022-10-24T03:21:27.907Z,71.42
2022-10-24T03:28:47.034Z,71.76
2022-10-24T03:31:13.439Z,71.86
2022-10-24T03:36:06.702Z,71.63
2022-10-24T03:38:33.063Z,71.62
2022-10-24T03:40:59.402Z,71.73
2022-10-24T03:45:52.076Z,71.65
2022-10-24T03:48:18.497Z,71.82
2022-10-24T03:50:44.865Z,72.36
2022-10-24T03:53:11.306Z,72.05
2022-10-24T03:55:38.106Z,72.25
2022-10-24T03:58:04.465Z,72.25
2022-10-24T04:00:32.407Z,72.04
2022-10-24T04:07:51.344Z,72.77
2022-10-24T04:15:10.720Z,72.98
2022-10-24T04:20:04.137Z,72.81
2022-10-24T04:22:30.519Z,72.72
2022-10-24T04:24:56.882Z,72.87
2022-10-24T04:27:23.267Z,73.51
2022-10-24T04:32:15.893Z,73.42
2022-10-24T04:34:42.235Z,73.65
2022-10-24T04:39:35.031Z,73.61
2022-10-24T04:42:01.488Z,73.60
2022-10-24T04:44:28.102Z,73.84
2022-10-24T04:46:54.453Z,73.72
2022-10-24T04:49:20.898Z,73.49
2022-10-24T04:51:47.317Z,73.52
2022-10-24T04:54:13.886Z,73.92
2022-10-24T04:56:40.218Z,74.04
2022-10-24T04:59:06.592Z,73.85
2022-10-24T05:01:32.951Z,73.54
2022-10-24T05:03:59.313Z,72.99
2022-10-24T05:08:51.966Z,73.24
2022-10-24T05:13:44.681Z,73.85
2022-10-24T05:21:03.743Z,73.47
2022-10-24T05:23:30.170Z,73.40
2022-10-24T05:25:56.505Z,72.65
2022-10-24T05:28:22.900Z,73.20
2022-10-24T05:33:15.608Z,72.67
2022-10-24T05:38:08.557Z,72.96
2022-10-24T05:40:34.909Z,72.96
2022-10-24T05:43:01.307Z,73.10
2022-10-24T05:45:27.646Z,73.27
2022-10-24T05:47:54.064Z,73.34
2022-10-24T05:52:47.345Z,73.57
2022-10-24T05:55:16.952Z,73.32
2022-10-24T05:57:45.051Z,73.63
2022-10-24T06:07:35.202Z,73.58
2022-10-24T06:10:03.242Z,73.73
2022-10-24T06:12:29.632Z,73.43
2022-10-24T06:14:59.959Z,74.08
2022-10-24T06:17:26.861Z,74.25
2022-10-24T06:19:53.257Z,73.79
2022-10-24T06:27:12.310Z,74.05
2022-10-24T06:29:38.684Z,73.99
2022-10-24T06:32:05.140Z,73.81
2022-10-24T06:34:31.514Z,74.08
2022-10-24T06:36:57.942Z,74.12
2022-10-24T06:39:24.626Z,73.80
2022-10-24T06:41:50.948Z,73.73
2022-10-24T06:46:44.635Z,73.38
2022-10-24T06:49:13.006Z,72.80
2022-10-24T06:51:40.318Z,72.88
2022-10-24T06:58:59.194Z,72.43
2022-10-24T07:01:26.975Z,72.50
2022-10-24T07:03:54.673Z,72.28
2022-10-24T07:06:26.282Z,72.43
2022-10-24T07:11:20.095Z,72.90
2022-10-24T07:13:46.661Z,72.91
2022-10-24T07:18:39.342Z,72.59
2022-10-24T07:21:09.064Z,72.94
2022-10-24T07:23:35.586Z,72.19
2022-10-24T07:26:05.087Z,72.16
2022-10-24T07:28:32.312Z,71.96
2022-10-24T07:35:52.375Z,71.78
2022-10-24T07:43:11.997Z,71.24
2022-10-24T07:45:39.331Z,71.81
2022-10-24T07:50:34.989Z,70.96
2022-10-24T08:00:20.586Z,70.98
2022-10-24T08:02:50.672Z,71.25
2022-10-24T08:07:56.419Z,70.90
2022-10-24T08:10:32.085Z,70.74
2022-10-24T08:12:58.733Z,71.09
2022-10-24T08:15:27.636Z,71.27
2022-10-24T08:17:54.993Z,71.47
2022-10-24T08:20:21.998Z,71.27
2022-10-24T08:25:14.631Z,70.90
2022-10-24T08:32:35.775Z,71.10
2022-10-24T08:35:02.087Z,71.21
2022-10-24T08:39:55.682Z,70.77
2022-10-24T08:42:24.702Z,71.24
2022-10-24T08:44:52.128Z,70.22
2022-10-24T08:47:26.173Z,70.35
2022-10-24T08:50:01.337Z,70.54
2022-10-24T08:52:34.733Z,70.48
2022-10-24T08:55:20.247Z,70.73
2022-10-24T08:57:55.653Z,69.88
2022-10-24T09:00:28.288Z,70.71
2022-10-24T09:03:26.618Z,70.53
2022-10-24T09:08:45.935Z,70.11
2022-10-24T09:11:30.749Z,70.00
2022-10-24T09:13:57.807Z,69.93
2022-10-24T09:16:24.666Z,70.08
2022-10-24T09:21:22.616Z,70.77
2022-10-24T09:23:51.729Z,70.85
2022-10-24T09:26:26.301Z,70.46
2022-10-24T09:28:54.986Z,69.90
2022-10-24T09:31:24.472Z,70.07
2022-10-24T09:36:20.249Z,69.77
2022-10-24T09:46:29.597Z,69.62
2022-10-24T09:49:02.858Z,70.47
2022-10-24T09:54:18.743Z,71.00
2022-10-24T10:09:42.141Z,70.06
2022-10-24T10:12:37.796Z,69.97
2022-10-24T10:20:30.602Z,69.31
2022-10-24T10:23:16.526Z,69.79
2022-10-24T10:25:42.959Z,69.08
2022-10-24T10:28:23.865Z,68.77
2022-10-24T10:33:38.929Z,67.67
2022-10-24T10:36:13.727Z,68.06
2022-10-24T10:38:51.235Z,67.19
2022-10-24T10:41:32.538Z,67.95
2022-10-24T10:46:34.232Z,67.60
2022-10-24T10:49:03.833Z,68.28
2022-10-24T10:51:42.331Z,68.00
2022-10-24T10:54:23.132Z,68.55
2022-10-24T10:57:17.477Z,66.53
2022-10-24T11:00:11.246Z,65.48
2022-10-24T11:05:40.230Z,66.16
2022-10-24T11:08:23.401Z,65.79
2022-10-24T11:13:42.112Z,66.42
2022-10-24T11:16:14.553Z,66.32
2022-10-24T11:18:45.357Z,67.14
2022-10-24T11:21:14.661Z,68.29
2022-10-24T11:26:19.794Z,68.14
2022-10-24T11:29:14.961Z,67.95
2022-10-24T11:31:49.644Z,67.80
2022-10-24T11:34:32.572Z,67.64
2022-10-24T11:39:40.541Z,67.97
2022-10-24T11:42:22.974Z,69.08
2022-10-24T11:45:06.449Z,70.84
2022-10-24T11:50:14.897Z,71.59
2022-10-24T11:52:54.392Z,71.43
2022-10-24T11:55:25.583Z,73.13
2022-10-24T12:00:24.554Z,72.06
2022-10-24T12:03:21.366Z,71.17
2022-10-24T12:06:06.269Z,71.39
2022-10-24T12:08:46.640Z,70.23
2022-10-24T12:14:29.711Z,70.75
2022-10-24T12:17:26.113Z,70.89
2022-10-24T12:19:52.805Z,71.83
2022-10-24T12:22:23.571Z,73.05
2022-10-24T12:30:16.197Z,72.95
2022-10-24T12:33:10.453Z,73.05
2022-10-24T12:35:46.870Z,72.44
2022-10-24T12:38:39.228Z,72.14
2022-10-24T12:41:26.836Z,72.97
2022-10-24T12:46:39.456Z,72.30
2022-10-24T12:49:08.785Z,72.16
2022-10-24T12:51:36.897Z,72.25
2022-10-24T12:54:12.368Z,72.12
2022-10-24T12:56:53.876Z,72.03
2022-10-24T12:59:28.613Z,71.15
2022-10-24T13:02:13.016Z,71.27
2022-10-24T13:05:04.145Z,71.86
2022-10-24T13:07:58.579Z,71.89
2022-10-24T13:10:33.203Z,73.08
2022-10-24T13:13:14.561Z,71.83
2022-10-24T13:15:54.003Z,72.68
2022-10-24T13:18:35.765Z,73.08
2022-10-24T13:21:16.860Z,72.13
2022-10-24T13:23:45.674Z,72.78
2022-10-24T13:26:38.771Z,72.08
2022-10-24T13:29:11.314Z,73.52
2022-10-24T13:31:37.573Z,73.07
2022-10-24T13:36:39.489Z,73.83
2022-10-24T13:41:41.929Z,73.75
2022-10-24T13:44:32.711Z,74.29
2022-10-24T13:47:08.063Z,74.65
2022-10-24T13:49:41.494Z,73.95
2022-10-24T13:54:45.472Z,74.71
2022-10-24T13:57:33.882Z,74.29
2022-10-24T14:05:06.081Z,74.12
2022-10-24T14:07:33.733Z,74.31
2022-10-24T14:10:08.118Z,74.56
2022-10-24T14:12:36.195Z,73.80
2022-10-24T14:17:33.444Z,72.84
2022-10-24T14:20:21.648Z,72.70
2022-10-24T14:22:48.246Z,72.85
2022-10-24T14:27:55.737Z,74.26
2022-10-24T14:30:25.081Z,78.77
2022-10-24T14:33:19.419Z,81.74
2022-10-24T14:35:47.331Z,83.46
2022-10-24T14:38:15.814Z,84.71
2022-10-24T14:43:17.153Z,86.12
2022-10-24T14:46:02.008Z,87.30
2022-10-24T14:53:28.512Z,84.82
2022-10-24T14:55:58.041Z,86.79
2022-10-24T15:00:54.425Z,88.72
2022-10-24T15:03:21.050Z,89.33
2022-10-24T15:06:27.225Z,89.75
2022-10-24T15:09:15.171Z,89.77
2022-10-24T15:11:44.573Z,90.46
2022-10-24T15:14:49.022Z,90.66
2022-10-24T15:17:18.659Z,90.85
2022-10-24T15:19:46.899Z,91.26
2022-10-24T15:22:31.439Z,91.65
2022-10-24T15:32:19.445Z,92.39
2022-10-24T15:37:24.550Z,92.83
2022-10-24T15:39:53.401Z,92.97
2022-10-24T15:42:22.459Z,93.26
2022-10-24T15:44:49.320Z,93.42
2022-10-24T15:47:15.649Z,93.67
2022-10-24T15:49:41.973Z,93.81
2022-10-24T15:52:14.941Z,94.03
2022-10-24T15:54:42.009Z,93.96
2022-10-24T15:57:13.100Z,94.24
2022-10-24T15:59:39.709Z,94.38
2022-10-24T16:02:16.078Z,94.04
2022-10-24T16:04:42.545Z,94.17
2022-10-24T16:17:00.780Z,93.51
2022-10-24T16:19:27.178Z,93.83
2022-10-24T16:26:51.820Z,94.02
2022-10-24T16:29:18.255Z,93.93
2022-10-24T16:31:46.741Z,94.12
2022-10-24T16:34:13.036Z,94.09
2022-10-24T16:39:08.252Z,93.83
2022-10-24T16:41:34.591Z,93.70
2022-10-24T16:44:00.989Z,93.86
2022-10-24T16:46:27.709Z,93.94
2022-10-24T16:48:54.708Z,93.85
2022-10-24T16:51:25.753Z,93.59
2022-10-24T16:53:52.088Z,93.89
2022-10-24T16:56:18.547Z,93.90
2022-10-24T17:01:14.156Z,93.93
2022-10-24T17:06:07.740Z,93.41
2022-10-24T17:08:34.311Z,93.42
2022-10-24T17:15:54.113Z,92.87
2022-10-24T17:18:23.245Z,92.91
2022-10-24T17:20:49.821Z,92.67
2022-10-24T17:28:13.757Z,92.78
2022-10-24T17:30:40.475Z,92.62
2022-10-24T17:33:07.287Z,92.17
2022-10-24T17:38:07.832Z,92.18
2022-10-24T17:40:46.041Z,92.57
2022-10-24T17:43:27.798Z,92.61
2022-10-24T17:45:56.799Z,92.31
2022-10-24T17:48:23.887Z,92.50
2022-10-24T17:53:25.244Z,92.32
2022-10-24T17:55:51.624Z,92.40
2022-10-24T17:58:18.025Z,91.95
2022-10-24T18:00:44.830Z,91.60
2022-10-24T18:03:11.357Z,91.60
2022-10-24T18:15:30.526Z,91.03
2022-10-24T18:17:56.943Z,90.95
2022-10-24T18:20:23.390Z,90.93
2022-10-24T18:22:50.192Z,91.05
2022-10-24T18:27:50.492Z,90.29
2022-10-24T18:35:11.873Z,90.32
2022-10-24T18:37:39.077Z,90.48
2022-10-24T18:40:07.601Z,90.14
2022-10-24T18:47:27.169Z,90.68
2022-10-24T18:52:39.964Z,91.46
2022-10-24T18:57:40.976Z,91.80
2022-10-24T19:05:15.318Z,92.12
2022-10-24T19:19:59.557Z,91.05
2022-10-24T19:32:11.964Z,91.35
2022-10-24T19:39:33.903Z,91.41
2022-10-24T19:44:26.796Z,91.52
2022-10-24T19:46:53.232Z,91.56
2022-10-24T19:51:45.838Z,91.35
2022-10-24T19:54:12.150Z,91.06
2022-10-24T20:01:31.310Z,91.22
2022-10-24T20:11:20.434Z,93.05
2022-10-24T20:13:47.894Z,93.42
2022-10-24T20:16:14.352Z,93.76
2022-10-24T20:18:42.877Z,93.64
2022-10-24T20:21:10.697Z,93.77
2022-10-24T20:26:07.451Z,94.21
2022-10-24T20:31:01.576Z,92.53
2022-10-24T20:33:27.907Z,92.61
2022-10-24T20:35:58.242Z,93.24
2022-10-24T20:40:50.859Z,93.42
2022-10-24T20:43:17.507Z,93.37
2022-10-24T20:45:43.816Z,93.08
2022-10-24T20:48:10.128Z,92.51
2022-10-24T20:50:36.642Z,92.49
2022-10-24T20:53:03.490Z,92.45
2022-10-24T20:58:12.945Z,92.89
2022-10-24T21:03:05.591Z,92.42
2022-10-24T21:08:00.429Z,92.51
2022-10-24T21:10:26.725Z,92.92
2022-10-24T21:12:53.427Z,93.21
2022-10-24T21:15:20.131Z,93.57
2022-10-24T21:22:39.489Z,93.93
2022-10-24T21:27:32.302Z,94.21
2022-10-24T21:29:58.632Z,94.51
2022-10-24T21:34:51.292Z,94.42
2022-10-24T21:37:17.604Z,94.20
2022-10-24T21:39:43.906Z,94.36
2022-10-24T21:49:29.147Z,94.14
2022-10-24T21:51:55.532Z,93.00
2022-10-24T21:54:23.949Z,93.08
2022-10-24T21:59:19.369Z,92.67
2022-10-24T22:01:47.330Z,92.88
2022-10-24T22:06:40.996Z,92.93
2022-10-24T22:09:09.031Z,93.05
2022-10-24T22:11:36.790Z,92.97
2022-10-24T22:14:04.688Z,92.76
2022-10-24T22:16:32.261Z,92.40
2022-10-24T22:19:03.176Z,92.61
2022-10-24T22:21:55.888Z,92.70
2022-10-24T22:26:50.839Z,92.99
2022-10-24T22:31:45.537Z,93.16
2022-10-24T22:36:59.792Z,92.74
2022-10-24T22:39:27.035Z,92.97
2022-10-24T22:44:21.241Z,93.39
2022-10-24T22:46:59.842Z,93.44
2022-10-24T22:49:52.184Z,92.85
2022-10-24T22:52:18.657Z,92.92
2022-10-24T22:54:45.260Z,92.63
2022-10-24T22:57:11.810Z,92.51
2022-10-24T23:05:06.623Z,92.27
2022-10-24T23:12:25.736Z,92.46
2022-10-24T23:19:51.336Z,92.59
2022-10-24T23:22:26.622Z,92.43
2022-10-24T23:24:58.751Z,92.40
2022-10-24T23:27:35.269Z,92.70
2022-10-24T23:32:32.816Z,92.83
2022-10-24T23:35:00.439Z,92.70
2022-10-24T23:37:37.297Z,92.88
2022-10-24T23:40:14.455Z,92.66
2022-10-24T23:42:41.080Z,92.40
2022-10-24T23:45:12.529Z,92.03
2022-10-24T23:50:27.893Z,92.01
2022-10-24T23:52:57.229Z,92.03
2022-10-24T23:57:49.982Z,91.97
